Goulds, Florida
Current Conditions -  °F | °C
As of 2:53 AM on Wednesday 26 Nov 2014 (Local Time) from KTMB Reporting Station
Broken Clouds Broken Clouds  
Wind Chill: 79°   Ceiling: 1000
Heat Index: 83°   Visibility: 10mi
Dew Point: 77°   Wind: 6mph
Humidity: 94%   Direction: 210°SSW
Pressure: 29.94"   Gusts: NA
Location:  25.5586°N, 80.4556°W
Report Text: KTMB 260753Z AUTO 21005KT 10SM BKN010 BKN015 26/25 A2994 RMK AO2 SLP138 T02610250
Loading
Personal Weather Stations






























Interactive Weather Map New forecast layout! Learn more

10-Day Weather Forecast

Advertisements
Track Severe Weather on mobile